createdAt,value
2022-08-19T00:03:42.943Z,12.70
2022-08-19T00:08:45.755Z,11.05
2022-08-19T00:13:49.294Z,11.02
2022-08-19T00:18:51.099Z,10.70
2022-08-19T00:23:53.258Z,11.07
2022-08-19T00:28:55.514Z,11.75
2022-08-19T00:33:57.092Z,11.98
2022-08-19T00:38:59.512Z,11.88
2022-08-19T00:44:05.262Z,11.73
2022-08-19T00:49:15.491Z,12.60
2022-08-19T00:54:17.999Z,11.85
2022-08-19T01:00:01.049Z,11.80
2022-08-19T01:04:42.143Z,11.90
2022-08-19T01:09:44.180Z,11.68
2022-08-19T01:14:46.337Z,13.10
2022-08-19T01:19:48.681Z,11.90
2022-08-19T01:24:50.746Z,12.73
2022-08-19T01:29:53.441Z,13.02
2022-08-19T01:34:54.996Z,13.25
2022-08-19T01:39:56.929Z,12.60
2022-08-19T01:44:58.585Z,12.90
2022-08-19T01:50:00.255Z,13.45
2022-08-19T01:55:01.850Z,12.32
2022-08-19T02:00:07.842Z,12.52
2022-08-19T02:05:13.437Z,14.05
2022-08-19T02:10:21.266Z,14.85
2022-08-19T02:15:22.898Z,12.75
2022-08-19T02:20:24.848Z,13.10
2022-08-19T02:25:26.406Z,12.38
2022-08-19T02:30:28.039Z,12.95
2022-08-19T02:35:29.635Z,12.30
2022-08-19T02:40:35.275Z,13.40
2022-08-19T02:45:41.374Z,12.90
2022-08-19T02:50:51.701Z,12.75
2022-08-19T02:55:54.898Z,14.65
2022-08-19T03:00:57.890Z,13.63
2022-08-19T03:06:15.273Z,14.07
2022-08-19T03:11:18.423Z,13.45
2022-08-19T03:16:21.001Z,13.25
2022-08-19T03:21:25.003Z,14.43
2022-08-19T03:26:26.865Z,13.50
2022-08-19T03:31:44.610Z,13.25
2022-08-19T03:36:50.107Z,14.40
2022-08-19T03:42:32.205Z,14.77
2022-08-19T03:47:17.896Z,14.85
2022-08-19T03:52:19.496Z,15.95
2022-08-19T03:57:21.559Z,14.93
2022-08-19T04:02:26.745Z,14.65
2022-08-19T04:07:28.375Z,15.07
2022-08-19T04:12:29.919Z,14.82
2022-08-19T04:17:31.476Z,14.80
2022-08-19T04:22:33.022Z,13.98
2022-08-19T04:27:35.054Z,13.18
2022-08-19T04:32:36.576Z,15.52
2022-08-19T04:37:39.283Z,16.38
2022-08-19T04:42:40.852Z,15.55
2022-08-19T04:47:49.187Z,15.30
2022-08-19T04:53:00.145Z,16.20
2022-08-19T04:58:02.893Z,16.60
2022-08-19T05:03:04.430Z,15.13
2022-08-19T05:08:09.359Z,14.32
2022-08-19T05:13:13.251Z,15.25
2022-08-19T05:18:33.167Z,14.43
2022-08-19T05:23:34.734Z,15.52
2022-08-19T05:28:36.279Z,17.02
2022-08-19T05:33:38.476Z,16.48
2022-08-19T05:38:40.029Z,16.98
2022-08-19T05:43:41.643Z,16.45
2022-08-19T05:48:43.197Z,15.65
2022-08-19T05:53:46.328Z,15.25
2022-08-19T05:58:48.189Z,14.23
2022-08-19T06:03:49.810Z,14.57
2022-08-19T06:08:51.653Z,13.52
2022-08-19T06:13:59.641Z,12.55
2022-08-19T06:19:04.705Z,11.55
2022-08-19T06:24:08.145Z,9.75
2022-08-19T06:29:11.570Z,11.23
2022-08-19T06:34:28.226Z,9.48
2022-08-19T06:39:32.189Z,9.52
2022-08-19T06:44:43.325Z,9.75
2022-08-19T06:49:45.234Z,10.60
2022-08-19T06:54:56.411Z,10.73
2022-08-19T06:59:58.464Z,10.65
2022-08-19T07:05:00.329Z,12.00
2022-08-19T07:10:04.865Z,12.20
2022-08-19T07:15:09.725Z,12.80
2022-08-19T07:20:11.878Z,11.93
2022-08-19T07:25:14.243Z,11.27
2022-08-19T07:30:16.013Z,12.55
2022-08-19T07:35:20.322Z,12.85
2022-08-19T07:40:22.085Z,13.10
2022-08-19T07:45:23.729Z,13.82
2022-08-19T07:50:25.354Z,12.77
2022-08-19T07:55:41.740Z,12.43
2022-08-19T08:00:46.552Z,13.32
2022-08-19T08:06:07.191Z,14.18
2022-08-19T08:11:09.395Z,13.90
2022-08-19T08:16:14.213Z,15.13
2022-08-19T08:21:16.276Z,14.27
2022-08-19T08:26:19.271Z,13.05
2022-08-19T08:31:21.120Z,13.73
2022-08-19T08:36:22.678Z,12.38
2022-08-19T08:41:50.263Z,10.90
2022-08-19T08:46:57.626Z,11.10
2022-08-19T08:52:15.163Z,10.40
2022-08-19T08:58:00.240Z,10.20
2022-08-19T09:03:04.413Z,9.52
2022-08-19T09:08:47.570Z,9.38
2022-08-19T09:14:01.369Z,12.50
2022-08-19T09:19:06.360Z,11.13
2022-08-19T09:24:08.120Z,12.15
2022-08-19T09:29:09.999Z,12.65
2022-08-19T09:34:21.001Z,14.60
2022-08-19T09:39:23.690Z,12.68
2022-08-19T09:44:25.329Z,11.82
2022-08-19T09:49:28.802Z,12.82
2022-08-19T09:54:30.504Z,13.68
2022-08-19T09:59:32.366Z,12.63
2022-08-19T10:04:53.839Z,12.25
2022-08-19T10:09:55.569Z,11.10
2022-08-19T10:14:57.810Z,10.85
2022-08-19T10:19:59.422Z,9.82
2022-08-19T10:25:01.877Z,9.40
2022-08-19T10:30:04.004Z,8.73
2022-08-19T10:35:11.694Z,8.60
2022-08-19T10:40:17.727Z,8.48
2022-08-19T10:45:19.387Z,8.40
2022-08-19T10:50:56.555Z,8.23
2022-08-19T10:56:16.489Z,10.20
2022-08-19T11:01:18.085Z,8.15
2022-08-19T11:06:20.585Z,9.38
2022-08-19T11:11:22.817Z,6.68
2022-08-19T11:16:27.606Z,10.55
2022-08-19T11:21:49.657Z,7.55
2022-08-19T11:26:53.792Z,7.00
2022-08-19T11:31:55.881Z,9.32
2022-08-19T11:37:00.634Z,10.05
2022-08-19T11:42:25.445Z,9.55
2022-08-19T11:47:27.184Z,10.10
2022-08-19T11:52:30.700Z,9.07
2022-08-19T11:57:32.585Z,10.20
2022-08-19T12:02:34.559Z,10.52
2022-08-19T12:07:36.857Z,11.35
2022-08-19T12:12:43.270Z,12.68
2022-08-19T12:17:44.919Z,14.35
2022-08-19T12:22:46.964Z,14.80
2022-08-19T12:27:56.739Z,16.05
2022-08-19T12:32:58.949Z,16.38
2022-08-19T12:38:02.675Z,15.98
2022-08-19T12:43:05.154Z,16.63
2022-08-19T12:48:33.506Z,15.55
2022-08-19T12:53:31.441Z,19.38
2022-08-19T12:58:35.416Z,17.35
2022-08-19T13:03:40.586Z,16.95
2022-08-19T13:08:42.818Z,16.48
2022-08-19T13:13:51.215Z,14.55
2022-08-19T13:18:52.928Z,15.48
2022-08-19T13:23:55.207Z,16.08
2022-08-19T13:29:15.538Z,16.45
2022-08-19T13:34:20.113Z,15.85
2022-08-19T13:39:23.941Z,18.67
2022-08-19T13:44:25.695Z,15.70
2022-08-19T13:49:31.913Z,15.52
2022-08-19T13:54:33.640Z,16.40
2022-08-19T13:59:35.458Z,16.48
2022-08-19T14:04:38.465Z,17.40
2022-08-19T14:09:40.122Z,18.83
2022-08-19T14:14:41.727Z,19.42
2022-08-19T14:19:43.869Z,19.58
2022-08-19T14:24:51.113Z,19.42
2022-08-19T14:29:53.444Z,18.15
2022-08-19T14:34:55.539Z,21.92
2022-08-19T14:39:57.247Z,20.92
2022-08-19T14:45:00.351Z,21.95
2022-08-19T14:50:05.150Z,22.58
2022-08-19T14:55:07.456Z,21.27
2022-08-19T15:00:16.507Z,22.40
2022-08-19T15:05:18.401Z,22.73
2022-08-19T15:10:20.077Z,21.40
2022-08-19T15:15:22.976Z,21.90
2022-08-19T15:20:25.110Z,21.52
2022-08-19T15:25:27.991Z,22.50
2022-08-19T15:30:29.899Z,22.27
2022-08-19T15:35:31.450Z,22.17
2022-08-19T15:40:33.011Z,23.40
2022-08-19T15:45:34.619Z,26.00
2022-08-19T15:50:36.321Z,22.80
2022-08-19T15:55:43.971Z,21.80
2022-08-19T16:01:14.494Z,21.55
2022-08-19T16:06:27.998Z,21.20
2022-08-19T16:11:32.668Z,22.23
2022-08-19T16:16:34.586Z,21.60
2022-08-19T16:21:37.086Z,23.35
2022-08-19T16:26:40.768Z,20.77
2022-08-19T16:31:44.168Z,19.52
2022-08-19T16:36:45.761Z,18.67
2022-08-19T16:41:47.428Z,18.70
2022-08-19T16:46:58.522Z,18.13
2022-08-19T16:52:02.537Z,16.98
2022-08-19T16:57:06.690Z,18.67
2022-08-19T17:02:14.499Z,17.85
2022-08-19T17:07:16.059Z,18.20
2022-08-19T17:12:17.720Z,17.85
2022-08-19T17:17:19.766Z,17.90
2022-08-19T17:22:21.345Z,17.90
2022-08-19T17:27:23.197Z,16.20
2022-08-19T17:32:25.059Z,15.88
2022-08-19T17:37:28.137Z,16.55
2022-08-19T17:42:29.866Z,14.68
2022-08-19T17:47:31.454Z,15.52
2022-08-19T17:52:33.344Z,13.95
2022-08-19T17:57:35.356Z,14.45
2022-08-19T18:02:48.030Z,15.63
2022-08-19T18:07:53.278Z,13.93
2022-08-19T18:12:55.849Z,15.55
2022-08-19T18:17:58.264Z,14.82
2022-08-19T18:23:44.078Z,15.45
2022-08-19T18:28:23.888Z,15.18
2022-08-19T18:33:25.869Z,16.83
2022-08-19T18:38:46.139Z,17.20
2022-08-19T18:44:06.997Z,15.52
2022-08-19T18:49:10.378Z,16.73
2022-08-19T18:54:12.583Z,19.35
2022-08-19T18:59:14.259Z,17.00
2022-08-19T19:04:17.700Z,16.58
2022-08-19T19:09:21.786Z,16.65
2022-08-19T19:14:50.641Z,17.40
2022-08-19T19:19:52.230Z,17.55
2022-08-19T19:24:56.734Z,20.15
2022-08-19T19:30:14.252Z,19.25
2022-08-19T19:35:15.805Z,17.67
2022-08-19T19:40:17.469Z,20.55
2022-08-19T19:45:19.114Z,21.05
2022-08-19T19:50:20.746Z,20.83
2022-08-19T19:55:22.400Z,20.50
2022-08-19T20:00:25.267Z,22.70
2022-08-19T20:05:26.951Z,21.20
2022-08-19T20:10:28.591Z,20.00
2022-08-19T20:15:32.131Z,22.00
2022-08-19T20:20:34.234Z,19.17
2022-08-19T20:25:38.124Z,19.00
2022-08-19T20:30:46.627Z,19.35
2022-08-19T20:35:49.720Z,19.15
2022-08-19T20:40:52.721Z,19.75
2022-08-19T20:45:55.731Z,20.60
2022-08-19T20:50:57.530Z,18.45
2022-08-19T20:55:59.879Z,18.55
2022-08-19T21:01:03.278Z,18.95
2022-08-19T21:06:05.208Z,16.90
2022-08-19T21:11:07.524Z,18.88
2022-08-19T21:16:09.317Z,17.17
2022-08-19T21:21:11.113Z,16.63
2022-08-19T21:26:12.673Z,16.73
2022-08-19T21:31:15.788Z,17.98
2022-08-19T21:36:17.530Z,16.17
2022-08-19T21:41:19.142Z,17.55
2022-08-19T21:46:20.832Z,17.27
2022-08-19T21:51:22.411Z,16.02
2022-08-19T21:56:24.421Z,17.08
2022-08-19T22:01:27.123Z,16.30
2022-08-19T22:06:28.885Z,15.75
2022-08-19T22:11:30.508Z,17.77
2022-08-19T22:16:32.695Z,17.17
2022-08-19T22:21:40.258Z,18.83
2022-08-19T22:26:42.236Z,16.33
2022-08-19T22:31:44.803Z,17.20
2022-08-19T22:36:46.453Z,18.65
2022-08-19T22:41:48.664Z,16.50
2022-08-19T22:46:50.263Z,16.92
2022-08-19T22:52:10.521Z,16.45
2022-08-19T22:57:12.216Z,16.58
2022-08-19T23:02:24.143Z,17.83
2022-08-19T23:07:26.187Z,16.98
2022-08-19T23:12:30.763Z,16.42
2022-08-19T23:17:32.350Z,18.02
2022-08-19T23:22:35.115Z,17.27
2022-08-19T23:27:55.257Z,19.25
2022-08-19T23:33:12.248Z,19.20
2022-08-19T23:38:14.465Z,18.70
2022-08-19T23:43:20.863Z,17.17
2022-08-19T23:48:28.353Z,19.77
2022-08-19T23:53:30.392Z,21.13
2022-08-19T23:58:31.959Z,19.67
